createdAt,value
2019-03-27T00:00:21.518Z,73.63
2019-03-27T00:01:21.457Z,73.7
2019-03-27T00:02:21.470Z,73.84
2019-03-27T00:03:21.425Z,74.08
2019-03-27T00:04:21.443Z,74.11
2019-03-27T00:05:21.484Z,74.07
2019-03-27T00:06:21.426Z,73.86
2019-03-27T00:07:21.443Z,74.16
2019-03-27T00:08:21.432Z,74.29
2019-03-27T00:09:21.469Z,74.43
2019-03-27T00:10:21.513Z,74.45
2019-03-27T00:11:21.415Z,74.24
2019-03-27T00:12:21.470Z,74.34
2019-03-27T00:13:21.430Z,74.28
2019-03-27T00:14:21.415Z,74.57
2019-03-27T00:15:21.434Z,74.35
2019-03-27T00:16:21.475Z,74.15
2019-03-27T00:17:21.422Z,74.49
2019-03-27T00:18:21.413Z,74.51
2019-03-27T00:19:21.419Z,74.53
2019-03-27T00:20:21.479Z,74.65
2019-03-27T00:21:21.477Z,74.35
2019-03-27T00:22:21.413Z,74.39
2019-03-27T00:23:24.406Z,74.48
2019-03-27T00:24:21.458Z,74.7
2019-03-27T00:25:21.382Z,74.69
2019-03-27T00:26:21.420Z,74.48
2019-03-27T00:27:21.407Z,74.42
2019-03-27T00:28:21.434Z,74.42
2019-03-27T00:29:21.471Z,74.47
2019-03-27T00:30:21.389Z,74.51
2019-03-27T00:31:22.056Z,74.49
2019-03-27T00:32:21.418Z,74.47
2019-03-27T00:33:21.394Z,74.35
2019-03-27T00:34:21.451Z,74.19
2019-03-27T00:35:21.426Z,74.06
2019-03-27T00:36:21.408Z,73.67
2019-03-27T00:37:21.393Z,73.66
2019-03-27T00:38:21.369Z,73.35
2019-03-27T00:39:21.428Z,73.26
2019-03-27T00:40:21.411Z,73.73
2019-03-27T00:41:21.547Z,73.29
2019-03-27T00:42:21.477Z,73.34
2019-03-27T00:43:22.501Z,73.46
2019-03-27T00:44:21.373Z,73.32
2019-03-27T00:45:27.432Z,73.1
2019-03-27T00:46:21.358Z,73.05
2019-03-27T00:47:21.360Z,73.01
2019-03-27T00:48:21.354Z,73.05
2019-03-27T00:49:21.401Z,72.91
2019-03-27T00:50:21.447Z,72.82
2019-03-27T00:51:21.433Z,73.12
2019-03-27T00:52:21.532Z,72.95
2019-03-27T00:53:22.748Z,73.14
2019-03-27T00:54:21.398Z,73.23
2019-03-27T00:55:21.383Z,73.04
2019-03-27T00:56:21.342Z,73.31
2019-03-27T00:57:21.389Z,73.09
2019-03-27T00:58:21.390Z,73.4
2019-03-27T00:59:21.379Z,73.86
2019-03-27T01:00:21.764Z,73.52
2019-03-27T01:01:21.394Z,73.56
2019-03-27T01:02:21.347Z,73.73
2019-03-27T01:03:21.353Z,73.22
2019-03-27T01:04:21.390Z,73.91
2019-03-27T01:05:21.364Z,74.07
2019-03-27T01:06:21.348Z,74.25
2019-03-27T01:07:22.462Z,74.51
2019-03-27T01:08:21.385Z,74.08
2019-03-27T01:09:21.350Z,74.24
2019-03-27T01:10:21.476Z,73.84
2019-03-27T01:11:21.331Z,73.9
2019-03-27T01:12:21.356Z,73.71
2019-03-27T01:13:21.318Z,73.69
2019-03-27T01:14:21.771Z,73.87
2019-03-27T01:15:21.337Z,73.67
2019-03-27T01:16:21.321Z,73.67
2019-03-27T01:17:21.330Z,73.53
2019-03-27T01:18:21.341Z,73.59
2019-03-27T01:19:21.383Z,73.35
2019-03-27T01:20:21.341Z,73.22
2019-03-27T01:21:21.334Z,73.53
2019-03-27T01:22:21.390Z,73.35
2019-03-27T01:23:21.389Z,73.29
2019-03-27T01:24:21.322Z,73.39
2019-03-27T01:25:21.337Z,73.62
2019-03-27T01:26:21.364Z,73.8
2019-03-27T01:27:21.332Z,73.58
2019-03-27T01:28:21.304Z,74.88
2019-03-27T01:29:21.284Z,75.2
2019-03-27T01:30:21.340Z,75.38
2019-03-27T01:31:21.291Z,75.78
2019-03-27T01:32:21.369Z,76.18
2019-03-27T01:33:21.352Z,76.29
2019-03-27T01:34:21.297Z,76.4
2019-03-27T01:35:21.367Z,76.28
2019-03-27T01:36:21.330Z,76.59
2019-03-27T01:37:21.293Z,76.06
2019-03-27T01:38:21.295Z,76.31
2019-03-27T01:39:21.283Z,76.5
2019-03-27T01:40:21.408Z,76.52
2019-03-27T01:41:21.324Z,76.82
2019-03-27T01:42:21.430Z,76.86
2019-03-27T01:43:21.358Z,76.7
2019-03-27T01:44:21.352Z,76.9
2019-03-27T01:45:21.310Z,77.13
2019-03-27T01:46:21.292Z,76.78
2019-03-27T01:47:21.306Z,76.64
2019-03-27T01:48:21.324Z,76.59
2019-03-27T01:49:21.290Z,76.64
2019-03-27T01:50:21.312Z,76.65
2019-03-27T01:51:21.289Z,76.78
2019-03-27T01:52:21.416Z,77.15
2019-03-27T01:53:21.319Z,77.36
2019-03-27T01:54:21.269Z,77.25
2019-03-27T01:55:21.342Z,77.5
2019-03-27T01:56:21.293Z,77.59
2019-03-27T01:57:21.789Z,77.5
2019-03-27T01:58:21.651Z,78.07
2019-03-27T01:59:21.256Z,77.89
2019-03-27T02:00:21.273Z,77.8
2019-03-27T02:01:21.308Z,78.04
2019-03-27T02:02:21.429Z,78.11
2019-03-27T02:03:21.306Z,78.12
2019-03-27T02:04:21.298Z,77.84
2019-03-27T02:05:21.247Z,77.58
2019-03-27T02:06:21.289Z,77.06
2019-03-27T02:07:21.282Z,77.05
2019-03-27T02:08:21.246Z,77.44
2019-03-27T02:09:21.266Z,77.56
2019-03-27T02:10:22.434Z,77.55
2019-03-27T02:11:21.283Z,77.75
2019-03-27T02:12:21.247Z,77.58
2019-03-27T02:13:21.343Z,77.53
2019-03-27T02:14:21.253Z,77.32
2019-03-27T02:15:21.268Z,76.82
2019-03-27T02:16:21.294Z,76.72
2019-03-27T02:17:21.220Z,76.4
2019-03-27T02:18:21.294Z,76.64
2019-03-27T02:19:21.371Z,76.74
2019-03-27T02:20:21.251Z,76.75
2019-03-27T02:21:21.258Z,76.5
2019-03-27T02:22:21.216Z,76.77
2019-03-27T02:23:21.249Z,76.89
2019-03-27T02:24:21.225Z,77.16
2019-03-27T02:25:21.222Z,77.3
2019-03-27T02:26:21.374Z,77
2019-03-27T02:27:21.270Z,76.73
2019-03-27T02:28:21.242Z,77.33
2019-03-27T02:29:21.241Z,77.44
2019-03-27T02:30:21.269Z,77.49
2019-03-27T02:31:21.242Z,77.42
2019-03-27T02:32:21.579Z,77.57
2019-03-27T02:33:21.246Z,77.39
2019-03-27T02:34:21.292Z,77.34
2019-03-27T02:35:21.237Z,77.25
2019-03-27T02:36:21.219Z,77.18
2019-03-27T02:37:21.209Z,77.34
2019-03-27T02:38:21.341Z,77.89
2019-03-27T02:39:21.225Z,77.97
2019-03-27T02:40:21.979Z,78.52
2019-03-27T02:41:21.348Z,78.59
2019-03-27T02:42:21.194Z,78.41
2019-03-27T02:43:21.276Z,78.44
2019-03-27T02:44:21.367Z,78.63
2019-03-27T02:45:21.211Z,78.65
2019-03-27T02:46:25.918Z,79.27
2019-03-27T02:47:21.189Z,79.01
2019-03-27T02:48:21.215Z,78.93
2019-03-27T02:49:21.285Z,78.86
2019-03-27T02:50:21.247Z,78.59
2019-03-27T02:51:21.309Z,78.4
2019-03-27T02:52:21.243Z,78.21
2019-03-27T02:53:21.240Z,77.9
2019-03-27T02:54:21.224Z,77.5
2019-03-27T02:55:21.201Z,77.43
2019-03-27T02:56:21.219Z,77.2
2019-03-27T02:57:21.188Z,77.27
2019-03-27T02:58:21.157Z,76.95
2019-03-27T02:59:21.189Z,77.01
2019-03-27T03:00:21.217Z,77.12
2019-03-27T03:01:21.195Z,77.41
2019-03-27T03:02:21.177Z,77.56
2019-03-27T03:03:21.246Z,77.26
2019-03-27T03:04:21.177Z,77.1
2019-03-27T03:05:21.188Z,76.96
2019-03-27T03:06:21.199Z,77.22
2019-03-27T03:07:21.203Z,77.11
2019-03-27T03:08:21.373Z,77.1
2019-03-27T03:09:21.147Z,77.46
2019-03-27T03:10:21.178Z,77
2019-03-27T03:11:21.256Z,77.56
2019-03-27T03:12:21.185Z,77.09
2019-03-27T03:13:21.189Z,77.45
2019-03-27T03:14:21.163Z,77.13
2019-03-27T03:15:21.179Z,76.8
2019-03-27T03:16:21.203Z,76.89
2019-03-27T03:17:21.175Z,77.14
2019-03-27T03:18:21.291Z,77.81
2019-03-27T03:19:21.173Z,77.98
2019-03-27T03:20:21.789Z,78.03
2019-03-27T03:21:21.332Z,77.97
2019-03-27T03:22:21.172Z,77.95
2019-03-27T03:23:21.812Z,78.07
2019-03-27T03:24:21.212Z,78.26
2019-03-27T03:25:21.198Z,77.93
2019-03-27T03:26:21.177Z,77.78
2019-03-27T03:27:21.162Z,77.94
2019-03-27T03:28:21.439Z,77.83
2019-03-27T03:29:21.169Z,77.68
2019-03-27T03:30:21.147Z,77.45
2019-03-27T03:31:21.154Z,77.4
2019-03-27T03:32:21.211Z,77.45
2019-03-27T03:33:21.208Z,77.57
2019-03-27T03:34:21.166Z,77.37
2019-03-27T03:35:21.139Z,77.05
2019-03-27T03:36:21.140Z,77.15
2019-03-27T03:37:21.291Z,77.33
2019-03-27T03:38:21.180Z,77.36
2019-03-27T03:39:21.208Z,77.39
2019-03-27T03:40:21.129Z,77.42
2019-03-27T03:41:21.121Z,77.54
2019-03-27T03:42:21.119Z,77.58
2019-03-27T03:43:21.155Z,77.72
2019-03-27T03:44:21.149Z,77.86
2019-03-27T03:45:21.356Z,77.72
2019-03-27T03:46:21.873Z,77.87
2019-03-27T03:47:21.132Z,77.86
2019-03-27T03:48:21.147Z,78.24
2019-03-27T03:49:21.164Z,78.21
2019-03-27T03:50:21.121Z,78.18
2019-03-27T03:51:21.106Z,77.82
2019-03-27T03:52:21.093Z,77.65
2019-03-27T03:53:21.089Z,77.59
2019-03-27T03:54:21.341Z,77.8
2019-03-27T03:55:23.457Z,77.47
2019-03-27T03:56:21.143Z,77.18
2019-03-27T03:57:21.157Z,77.07
2019-03-27T03:58:21.073Z,77.39
2019-03-27T03:59:21.183Z,77.72
2019-03-27T04:00:21.253Z,77.47
2019-03-27T04:01:21.242Z,77.83
2019-03-27T04:02:21.160Z,77.84
2019-03-27T04:03:21.138Z,77.86
2019-03-27T04:04:21.102Z,77.57
2019-03-27T04:05:21.069Z,77.89
2019-03-27T04:06:21.109Z,77.66
2019-03-27T04:07:21.132Z,77.86
2019-03-27T04:08:21.114Z,78.25
2019-03-27T04:09:21.170Z,78.09
2019-03-27T04:10:21.094Z,78.52
2019-03-27T04:11:21.106Z,78.68
2019-03-27T04:12:21.115Z,78.69
2019-03-27T04:13:21.088Z,78.89
2019-03-27T04:14:21.087Z,79.15
2019-03-27T04:15:21.124Z,78.95
2019-03-27T04:16:21.086Z,78.67
2019-03-27T04:17:21.109Z,78.87
2019-03-27T04:18:21.059Z,78.77
2019-03-27T04:19:21.183Z,78.86
2019-03-27T04:20:21.093Z,78.75
2019-03-27T04:21:21.101Z,78.64
2019-03-27T04:22:21.065Z,78.66
2019-03-27T04:23:21.094Z,78.76
2019-03-27T04:24:21.053Z,78.91
2019-03-27T04:25:21.083Z,78.88
2019-03-27T04:26:21.061Z,79.12
2019-03-27T04:27:21.074Z,79.13
2019-03-27T04:28:21.221Z,78.96
2019-03-27T04:29:21.068Z,78.9
2019-03-27T04:30:21.046Z,78.84
2019-03-27T04:31:21.102Z,78.94
2019-03-27T04:32:21.114Z,79
2019-03-27T04:33:21.063Z,78.76
2019-03-27T04:34:21.058Z,78.49
2019-03-27T04:35:21.149Z,78.27
2019-03-27T04:36:21.106Z,78.11
2019-03-27T04:37:21.150Z,77.96
2019-03-27T04:38:21.014Z,77.79
2019-03-27T04:39:21.072Z,78.04
2019-03-27T04:40:21.038Z,78.04
2019-03-27T04:41:21.078Z,78.84
2019-03-27T04:42:21.030Z,78.83
2019-03-27T04:43:21.052Z,78.75
2019-03-27T04:44:21.033Z,78.79
2019-03-27T04:45:21.273Z,78.74
2019-03-27T04:46:21.050Z,78.99
2019-03-27T04:47:32.856Z,78.9
2019-03-27T04:48:21.140Z,79.04
2019-03-27T04:49:21.042Z,78.66
2019-03-27T04:50:21.314Z,78.75
2019-03-27T04:51:21.059Z,78.91
2019-03-27T04:52:21.078Z,78.84
2019-03-27T04:53:21.039Z,78.8
2019-03-27T04:54:21.018Z,78.94
2019-03-27T04:55:21.043Z,78.92
2019-03-27T04:56:21.077Z,78.96
2019-03-27T04:57:21.075Z,78.49
2019-03-27T04:58:21.880Z,78.38
2019-03-27T04:59:20.993Z,78.24
2019-03-27T05:00:20.991Z,78.52
2019-03-27T05:01:21.061Z,78.41
2019-03-27T05:02:21.030Z,78.71
2019-03-27T05:03:20.997Z,78.74
2019-03-27T05:04:21.052Z,78.63
2019-03-27T05:05:21.002Z,78.57
2019-03-27T05:06:21.022Z,78.42
2019-03-27T05:07:21.030Z,78.63
2019-03-27T05:08:22.442Z,78.16
2019-03-27T05:09:21.009Z,78.05
2019-03-27T05:10:20.988Z,77.89
2019-03-27T05:11:21.005Z,78.3
2019-03-27T05:12:20.985Z,78.16
2019-03-27T05:13:21.024Z,78.49
2019-03-27T05:14:21.054Z,78.19
2019-03-27T05:15:20.999Z,78.27
2019-03-27T05:16:21.132Z,78.34
2019-03-27T05:17:21.085Z,78.24
2019-03-27T05:18:21.229Z,78.57
2019-03-27T05:19:21.877Z,78.42
2019-03-27T05:20:20.984Z,78.88
2019-03-27T05:21:20.972Z,78.92
2019-03-27T05:22:21.036Z,78.87
2019-03-27T05:23:21.266Z,78.96
2019-03-27T05:24:20.997Z,78.95
2019-03-27T05:25:21.016Z,78.94
2019-03-27T05:26:21.043Z,78.87
2019-03-27T05:27:21.007Z,78.3
2019-03-27T05:28:21.011Z,78.18
2019-03-27T05:29:20.973Z,78.05
2019-03-27T05:30:20.975Z,77.98
2019-03-27T05:31:20.962Z,78.31
2019-03-27T05:32:23.181Z,78.58
2019-03-27T05:33:20.973Z,78.84
2019-03-27T05:34:22.698Z,78.4
2019-03-27T05:35:20.982Z,78.79
2019-03-27T05:36:20.966Z,78.6
2019-03-27T05:37:20.932Z,78.63
2019-03-27T05:38:20.945Z,78.72
2019-03-27T05:39:20.928Z,78.37
2019-03-27T05:40:20.964Z,78.98
2019-03-27T05:41:20.978Z,79.11
2019-03-27T05:42:21.009Z,78.61
2019-03-27T05:43:21.828Z,78.92
2019-03-27T05:44:20.943Z,79.36
2019-03-27T05:45:20.967Z,78.89
2019-03-27T05:46:20.937Z,79.51
2019-03-27T05:47:20.942Z,80.33
2019-03-27T05:48:20.946Z,79.99
2019-03-27T05:49:20.983Z,79.76
2019-03-27T05:50:20.975Z,79.69
2019-03-27T05:51:20.906Z,79.85
2019-03-27T05:52:20.922Z,79.27
2019-03-27T05:53:21.021Z,79.74
2019-03-27T05:54:20.969Z,79.41
2019-03-27T05:55:21.141Z,79.57
2019-03-27T05:56:21.792Z,79.14
2019-03-27T05:57:20.932Z,79.07
2019-03-27T05:58:21.197Z,80.08
2019-03-27T05:59:20.937Z,80.01
2019-03-27T06:00:20.945Z,79.75
2019-03-27T06:01:20.896Z,79.64
2019-03-27T06:02:21.103Z,79.26
2019-03-27T06:03:20.984Z,79.49
2019-03-27T06:04:20.918Z,80.12
2019-03-27T06:05:20.911Z,79.75
2019-03-27T06:06:20.908Z,79.33
2019-03-27T06:07:20.942Z,78.91
2019-03-27T06:08:20.890Z,78.59
2019-03-27T06:09:21.961Z,78.47
2019-03-27T06:10:20.924Z,78.42
2019-03-27T06:11:20.895Z,78.64
2019-03-27T06:12:20.916Z,79.18
2019-03-27T06:13:21.835Z,79.17
2019-03-27T06:14:20.916Z,78.96
2019-03-27T06:15:22.046Z,78.89
2019-03-27T06:16:21.133Z,78.86
2019-03-27T06:17:21.124Z,79.44
2019-03-27T06:18:20.886Z,79.11
2019-03-27T06:19:20.896Z,79.16
2019-03-27T06:20:21.787Z,79.34
2019-03-27T06:21:20.904Z,78.91
2019-03-27T06:22:20.911Z,78.57
2019-03-27T06:23:20.869Z,78.38
2019-03-27T06:24:20.896Z,78.64
2019-03-27T06:25:20.865Z,79.24
2019-03-27T06:26:20.910Z,79.43
2019-03-27T06:27:20.906Z,78.71
2019-03-27T06:28:20.958Z,79.07
2019-03-27T06:29:20.934Z,79.38
2019-03-27T06:30:20.894Z,79.29
2019-03-27T06:31:20.862Z,79.51
2019-03-27T06:32:20.973Z,79.59
2019-03-27T06:33:20.899Z,79.57
2019-03-27T06:34:20.861Z,79.8
2019-03-27T06:35:20.892Z,79.62
2019-03-27T06:36:20.877Z,79.57
2019-03-27T06:37:20.956Z,79.29
2019-03-27T06:38:21.351Z,79.37
2019-03-27T06:39:21.087Z,79.17
2019-03-27T06:40:20.888Z,78.9
2019-03-27T06:41:20.960Z,79.16
2019-03-27T06:42:20.923Z,79.09
2019-03-27T06:43:20.930Z,78.81
2019-03-27T06:44:20.961Z,79.19
2019-03-27T06:45:21.019Z,78.81
2019-03-27T06:46:21.818Z,78.45
2019-03-27T06:47:20.925Z,78.74
2019-03-27T06:48:26.901Z,78.68
2019-03-27T06:49:20.845Z,78.58
2019-03-27T06:50:20.878Z,78.17
2019-03-27T06:51:20.888Z,78.27
2019-03-27T06:52:20.853Z,78.45
2019-03-27T06:53:20.934Z,78.26
2019-03-27T06:54:20.867Z,78.79
2019-03-27T06:55:20.881Z,78.46
2019-03-27T06:56:21.083Z,78.76
2019-03-27T06:57:20.840Z,78.85
2019-03-27T06:58:20.908Z,78.21
2019-03-27T06:59:20.830Z,78.16
2019-03-27T07:00:21.797Z,78.11
2019-03-27T07:01:20.892Z,78.4
2019-03-27T07:02:20.878Z,78.34
2019-03-27T07:03:20.834Z,78.17
2019-03-27T07:04:20.939Z,78.02
2019-03-27T07:05:20.949Z,78.06
2019-03-27T07:06:21.000Z,78.03
2019-03-27T07:07:20.928Z,77.81
2019-03-27T07:08:20.814Z,78
2019-03-27T07:09:20.836Z,78.05
2019-03-27T07:10:20.829Z,78.12
2019-03-27T07:11:20.883Z,78.04
2019-03-27T07:12:21.872Z,77.85
2019-03-27T07:13:20.835Z,77.73
2019-03-27T07:14:20.980Z,77.75
2019-03-27T07:15:20.881Z,77.74
2019-03-27T07:16:20.850Z,77.71
2019-03-27T07:17:21.010Z,77.22
2019-03-27T07:18:20.937Z,77.62
2019-03-27T07:19:20.891Z,77.65
2019-03-27T07:20:20.857Z,77.52
2019-03-27T07:21:21.210Z,77.43
2019-03-27T07:22:20.829Z,77.69
2019-03-27T07:23:20.821Z,77.91
2019-03-27T07:24:21.729Z,77.96
2019-03-27T07:25:20.916Z,78.2
2019-03-27T07:26:20.926Z,77.44
2019-03-27T07:27:20.826Z,77.29
2019-03-27T07:28:20.770Z,77.4
2019-03-27T07:29:20.793Z,77.02
2019-03-27T07:30:21.721Z,77.16
2019-03-27T07:31:20.756Z,77.05
2019-03-27T07:32:20.855Z,77.04
2019-03-27T07:33:20.776Z,77.11
2019-03-27T07:34:20.757Z,77.1
2019-03-27T07:35:20.761Z,76.9
2019-03-27T07:36:20.818Z,76.69
2019-03-27T07:37:20.753Z,76.91
2019-03-27T07:38:20.825Z,76.88
2019-03-27T07:39:20.755Z,76.78
2019-03-27T07:40:20.864Z,76.67
2019-03-27T07:41:20.807Z,76.66
2019-03-27T07:42:20.794Z,76.54
2019-03-27T07:43:20.838Z,76.46
2019-03-27T07:44:20.760Z,76.42
2019-03-27T07:45:20.791Z,76.5
2019-03-27T07:46:20.775Z,76.53
2019-03-27T07:47:20.771Z,76.48
2019-03-27T07:48:20.878Z,76.37
2019-03-27T07:49:20.825Z,76.44
2019-03-27T07:50:20.782Z,76.38
2019-03-27T07:51:20.784Z,76.78
2019-03-27T07:52:20.783Z,76.9
2019-03-27T07:53:22.833Z,76.59
2019-03-27T07:54:20.780Z,76.24
2019-03-27T07:55:20.809Z,76.34
2019-03-27T07:56:20.759Z,76.71
2019-03-27T07:57:20.734Z,76.07
2019-03-27T07:58:20.739Z,75.89
2019-03-27T07:59:20.794Z,76.15
2019-03-27T08:00:20.820Z,76.25
2019-03-27T08:01:20.739Z,76.35
2019-03-27T08:02:20.824Z,76.53
2019-03-27T08:03:20.723Z,76.02
2019-03-27T08:04:20.943Z,76
2019-03-27T08:05:20.727Z,75.64
2019-03-27T08:06:20.784Z,75.53
2019-03-27T08:07:27.431Z,75.62
2019-03-27T08:08:20.871Z,75.8
2019-03-27T08:09:23.322Z,75.72
2019-03-27T08:10:20.732Z,75.65
2019-03-27T08:11:21.180Z,75.57
2019-03-27T08:12:20.737Z,75.92
2019-03-27T08:13:20.781Z,75.55
2019-03-27T08:14:20.738Z,75.43
2019-03-27T08:15:20.781Z,75.43
2019-03-27T08:16:20.808Z,75.18
2019-03-27T08:17:20.825Z,75.19
2019-03-27T08:18:20.732Z,75.36
2019-03-27T08:19:20.751Z,75.37
2019-03-27T08:20:20.766Z,75.17
2019-03-27T08:21:20.730Z,75.16
2019-03-27T08:22:20.771Z,74.41
2019-03-27T08:23:20.764Z,73.6
2019-03-27T08:24:20.747Z,73.84
2019-03-27T08:25:20.728Z,73.98
2019-03-27T08:26:20.969Z,74.28
2019-03-27T08:27:20.716Z,74.07
2019-03-27T08:28:20.742Z,73.88
2019-03-27T08:29:20.700Z,73.53
2019-03-27T08:30:20.763Z,73.32
2019-03-27T08:31:20.768Z,73.6
2019-03-27T08:32:20.698Z,73.11
2019-03-27T08:33:20.716Z,73.4
2019-03-27T08:34:20.863Z,73.37
2019-03-27T08:35:20.709Z,73.19
2019-03-27T08:36:20.704Z,72.52
2019-03-27T08:37:20.750Z,72.8
2019-03-27T08:38:20.751Z,72.42
2019-03-27T08:39:20.772Z,72.92
2019-03-27T08:40:20.708Z,73.15
2019-03-27T08:41:20.682Z,72.98
2019-03-27T08:42:20.681Z,72.08
2019-03-27T08:43:25.849Z,71.8
2019-03-27T08:44:20.744Z,72.45
2019-03-27T08:45:20.684Z,71.68
2019-03-27T08:46:20.720Z,71.48
2019-03-27T08:47:20.793Z,71.55
2019-03-27T08:48:20.744Z,71.92
2019-03-27T08:49:22.900Z,71.48
2019-03-27T08:50:20.758Z,71.33
2019-03-27T08:51:20.726Z,71.34
2019-03-27T08:52:20.692Z,70.72
2019-03-27T08:53:20.720Z,70.84
2019-03-27T08:54:20.724Z,70.91
2019-03-27T08:55:20.739Z,70.71
2019-03-27T08:56:20.656Z,70.54
2019-03-27T08:57:20.692Z,70.6
2019-03-27T08:58:20.657Z,70.54
2019-03-27T08:59:20.650Z,69.98
2019-03-27T09:00:21.666Z,69.39
2019-03-27T09:01:20.716Z,69.57
2019-03-27T09:02:20.717Z,69.95
2019-03-27T09:03:20.895Z,70.38
2019-03-27T09:04:20.653Z,69.63
2019-03-27T09:05:20.618Z,69.73
2019-03-27T09:06:34.471Z,69.61
2019-03-27T09:07:20.676Z,69.49
2019-03-27T09:08:20.662Z,69.39
2019-03-27T09:09:20.642Z,69.64
2019-03-27T09:10:20.625Z,70.06
2019-03-27T09:11:20.746Z,69.45
2019-03-27T09:12:20.655Z,69.79
2019-03-27T09:13:20.699Z,69.65
2019-03-27T09:14:20.674Z,68.84
2019-03-27T09:15:20.666Z,69.38
2019-03-27T09:16:20.660Z,67.25
2019-03-27T09:17:20.708Z,66.84
2019-03-27T09:18:20.708Z,67.01
2019-03-27T09:19:36.568Z,66.32
2019-03-27T09:20:20.617Z,65.99
2019-03-27T09:21:20.679Z,66.11
2019-03-27T09:22:21.624Z,67.32
2019-03-27T09:23:20.699Z,66.96
2019-03-27T09:24:20.649Z,66.33
2019-03-27T09:25:20.650Z,66.87
2019-03-27T09:26:20.784Z,67.26
2019-03-27T09:27:20.671Z,67.4
2019-03-27T09:28:20.629Z,68.14
2019-03-27T09:29:20.616Z,68.02
2019-03-27T09:30:20.973Z,67.34
2019-03-27T09:31:20.652Z,66.49
2019-03-27T09:32:20.662Z,67.27
2019-03-27T09:33:20.634Z,66.71
2019-03-27T09:34:20.612Z,66.45
2019-03-27T09:35:20.607Z,66.27
2019-03-27T09:36:20.641Z,66.46
2019-03-27T09:37:20.612Z,66.45
2019-03-27T09:38:20.609Z,66.43
2019-03-27T09:39:20.636Z,66.27
2019-03-27T09:40:20.673Z,66.7
2019-03-27T09:41:21.822Z,65.82
2019-03-27T09:42:20.631Z,64.96
2019-03-27T09:43:20.598Z,64.43
2019-03-27T09:44:20.785Z,65.89
2019-03-27T09:45:20.748Z,65.11
2019-03-27T09:46:20.638Z,65.57
2019-03-27T09:47:20.600Z,64.52
2019-03-27T09:48:20.631Z,64.92
2019-03-27T09:49:20.599Z,65.33
2019-03-27T09:50:20.646Z,65.33
2019-03-27T09:51:20.643Z,64.91
2019-03-27T09:52:20.781Z,65.02
2019-03-27T09:53:20.588Z,64.72
2019-03-27T09:54:20.652Z,64.83
2019-03-27T09:55:20.673Z,64.8
2019-03-27T09:56:20.600Z,64.43
2019-03-27T09:57:20.578Z,64.19
2019-03-27T09:58:20.630Z,65.01
2019-03-27T09:59:20.615Z,64.98
2019-03-27T10:00:20.585Z,63.82
2019-03-27T10:01:20.649Z,63.52
2019-03-27T10:02:20.636Z,64.39
2019-03-27T10:03:20.582Z,64.65
2019-03-27T10:04:20.596Z,64.36
2019-03-27T10:05:20.553Z,62.96
2019-03-27T10:06:20.703Z,62.08
2019-03-27T10:07:20.576Z,61.58
2019-03-27T10:08:20.620Z,61.7
2019-03-27T10:09:20.569Z,61.45
2019-03-27T10:10:20.542Z,61.46
2019-03-27T10:11:24.110Z,61.71
2019-03-27T10:12:20.604Z,62.32
2019-03-27T10:13:20.574Z,63.2
2019-03-27T10:14:22.420Z,62.31
2019-03-27T10:15:20.550Z,62.95
2019-03-27T10:16:20.634Z,62.57
2019-03-27T10:17:20.568Z,61.21
2019-03-27T10:18:20.601Z,60.98
2019-03-27T10:19:20.565Z,62.19
2019-03-27T10:20:20.604Z,61.47
2019-03-27T10:21:20.539Z,61.21
2019-03-27T10:22:20.546Z,61.61
2019-03-27T10:23:20.580Z,59.95
2019-03-27T10:24:20.726Z,59.69
2019-03-27T10:25:20.559Z,61.04
2019-03-27T10:26:20.574Z,60.26
2019-03-27T10:27:20.544Z,60.3
2019-03-27T10:28:20.570Z,60.72
2019-03-27T10:29:20.556Z,60.94
2019-03-27T10:30:20.600Z,59.66
2019-03-27T10:31:20.525Z,59.92
2019-03-27T10:32:20.546Z,60.31
2019-03-27T10:33:20.579Z,61.06
2019-03-27T10:34:20.515Z,60.74
2019-03-27T10:35:20.650Z,60.93
2019-03-27T10:36:20.598Z,61.06
2019-03-27T10:37:20.522Z,61.59
2019-03-27T10:38:20.548Z,60.8
2019-03-27T10:39:20.543Z,61.23
2019-03-27T10:40:20.555Z,61.45
2019-03-27T10:41:20.500Z,61.29
2019-03-27T10:42:20.535Z,61.52
2019-03-27T10:43:20.576Z,61.5
2019-03-27T10:44:20.604Z,61.5
2019-03-27T10:45:20.509Z,61.72
2019-03-27T10:46:20.492Z,61.6
2019-03-27T10:47:20.548Z,61.99
2019-03-27T10:48:20.565Z,62.13
2019-03-27T10:49:20.986Z,62.41
2019-03-27T10:50:20.593Z,61.99
2019-03-27T10:51:20.553Z,61.68
2019-03-27T10:52:20.511Z,61.82
2019-03-27T10:53:20.498Z,61.04
2019-03-27T10:54:20.600Z,61.44
2019-03-27T10:55:20.525Z,61.47
2019-03-27T10:56:21.404Z,61.47
2019-03-27T10:57:20.541Z,61.54
2019-03-27T10:58:20.532Z,61.49
2019-03-27T10:59:20.451Z,60.4
2019-03-27T11:00:20.452Z,60.03
2019-03-27T11:01:20.516Z,59.76
2019-03-27T11:02:20.518Z,60.38
2019-03-27T11:03:20.501Z,59.89
2019-03-27T11:04:20.526Z,60.31
2019-03-27T11:05:20.595Z,60.6
2019-03-27T11:06:20.496Z,61.09
2019-03-27T11:07:20.655Z,60.49
2019-03-27T11:08:20.479Z,60.04
2019-03-27T11:09:20.469Z,59.74
2019-03-27T11:11:20.492Z,59.86
2019-03-27T11:12:20.487Z,60.61
2019-03-27T11:13:20.466Z,60.41
2019-03-27T11:14:20.551Z,60.49
2019-03-27T11:15:20.537Z,60.29
2019-03-27T11:16:20.493Z,60.86
2019-03-27T11:17:20.517Z,59.91
2019-03-27T11:18:20.848Z,59.91
2019-03-27T11:19:21.087Z,60.13
2019-03-27T11:20:31.866Z,60.31
2019-03-27T11:21:20.470Z,60.86
2019-03-27T11:22:20.473Z,61.25
2019-03-27T11:23:20.490Z,61.14
2019-03-27T11:24:20.527Z,61.07
2019-03-27T11:25:20.472Z,60.54
2019-03-27T11:26:20.481Z,60.73
2019-03-27T11:27:20.448Z,61.04
2019-03-27T11:28:20.485Z,60.18
2019-03-27T11:29:20.526Z,59.88
2019-03-27T11:30:20.486Z,59.91
2019-03-27T11:31:20.792Z,60.38
2019-03-27T11:32:20.484Z,59.91
2019-03-27T11:33:20.474Z,60.31
2019-03-27T11:35:20.454Z,60
2019-03-27T11:36:20.491Z,60.14
2019-03-27T11:37:20.433Z,59.68
2019-03-27T11:38:20.667Z,59.4
2019-03-27T11:39:20.572Z,59.86
2019-03-27T11:40:20.470Z,60.1
2019-03-27T11:41:20.480Z,60.26
2019-03-27T11:42:20.472Z,60.18
2019-03-27T11:43:20.457Z,59.86
2019-03-27T11:44:20.420Z,59.67
2019-03-27T11:45:20.489Z,59.39
2019-03-27T11:46:20.432Z,59.26
2019-03-27T11:47:20.432Z,59.58
2019-03-27T11:48:20.430Z,59.66
2019-03-27T11:49:20.456Z,59.67
2019-03-27T11:50:20.438Z,59.46
2019-03-27T11:51:20.463Z,58.35
2019-03-27T11:52:20.499Z,57.86
2019-03-27T11:53:20.408Z,57.21
2019-03-27T11:54:20.468Z,57.92
2019-03-27T11:55:20.420Z,58.07
2019-03-27T11:56:20.426Z,58.73
2019-03-27T11:57:20.472Z,58.13
2019-03-27T11:58:20.470Z,55.97
2019-03-27T11:59:20.953Z,56.4
2019-03-27T12:00:20.479Z,56.55
2019-03-27T12:01:20.441Z,54.35
2019-03-27T12:02:20.422Z,54.71
2019-03-27T12:03:20.426Z,54.06
2019-03-27T12:04:20.506Z,55.78
2019-03-27T12:05:20.545Z,54.86
2019-03-27T12:06:20.462Z,52.74
2019-03-27T12:07:20.426Z,53.08
2019-03-27T12:08:20.433Z,53.08
2019-03-27T12:09:20.374Z,54.19
2019-03-27T12:10:20.407Z,53.78
2019-03-27T12:11:20.416Z,53.74
2019-03-27T12:12:21.825Z,52.98
2019-03-27T12:13:20.382Z,53.02
2019-03-27T12:14:20.383Z,52.51
2019-03-27T12:15:20.459Z,53.67
2019-03-27T12:16:20.357Z,54.03
2019-03-27T12:17:20.396Z,54.49
2019-03-27T12:18:20.402Z,54.36
2019-03-27T12:19:20.609Z,54
2019-03-27T12:20:20.501Z,53.94
2019-03-27T12:21:20.427Z,52.12
2019-03-27T12:22:20.394Z,51.68
2019-03-27T12:23:20.411Z,49.42
2019-03-27T12:24:20.391Z,49.66
2019-03-27T12:25:20.399Z,49.67
2019-03-27T12:26:20.427Z,49.99
2019-03-27T12:27:20.418Z,49.85
2019-03-27T12:28:20.462Z,50.15
2019-03-27T12:29:20.410Z,51.32
2019-03-27T12:30:20.355Z,51.49
2019-03-27T12:31:20.406Z,51.36
2019-03-27T12:32:20.457Z,51.91
2019-03-27T12:33:20.369Z,52.48
2019-03-27T12:34:20.397Z,52.65
2019-03-27T12:35:20.373Z,53.02
2019-03-27T12:36:20.398Z,52.87
2019-03-27T12:37:20.412Z,52.47
2019-03-27T12:38:20.405Z,51.89
2019-03-27T12:39:20.520Z,51.56
2019-03-27T12:40:20.343Z,51.74
2019-03-27T12:41:20.379Z,51.63
2019-03-27T12:42:21.051Z,51.44
2019-03-27T12:43:20.364Z,51.02
2019-03-27T12:44:20.344Z,51.36
2019-03-27T12:45:20.387Z,50.86
2019-03-27T12:46:20.372Z,50.88
2019-03-27T12:47:20.401Z,51.46
2019-03-27T12:48:20.737Z,51.74
2019-03-27T12:49:20.356Z,52.08
2019-03-27T12:50:20.356Z,53.1
2019-03-27T12:51:20.373Z,53.01
2019-03-27T12:52:20.473Z,52.97
2019-03-27T12:53:20.377Z,52.35
2019-03-27T12:54:20.355Z,52.33
2019-03-27T12:55:20.345Z,51.74
2019-03-27T12:56:20.329Z,51.78
2019-03-27T12:57:20.364Z,52.08